Aérodrome :
LOGIN :

S'inscrire | Disclaimer

   EN    FR    IT 

 










Légende :    VFR   VFR Marginal   IFR   IFR Intensif   IFR Très Intensif
Visi : 
Plafond : 
>= 8 km
>= 3000ft
5 à 8 km
1000 à 3000 ft
1500m à 5 km
500 à 1000 ft
800 à 1500m
200 à 500 ft
< 800m
< 200 ft
Symboles :   Orages  Brouillard  Fortes neiges  Fortes précipitations  Vent > 20 kt
SIGMETs :   Divers  Orages  Givrage  Turbulence  Onde Orograph.  Cendres Volcan.






- Altitude de l'aérodrome : 23 ft
- Code IATA : XFW


EDHI - Hamburg Finkenwerder

DERNIER METAR :
  • 162120Z AUTO 33003KT 280V010 9999 // NCD 23/18 Q1010

METARs EXPIRÉS :
  • 162050Z AUTO 33005KT 300V360 9999 // SCT160/// 23/19 Q1010
  • 162020Z AUTO 35004KT 310V020 9999 // BKN110/// BKN160/// 24/18 Q1010
  • 161950Z AUTO VRB02KT 9999 // FEW110/// BKN170/// 24/18 Q1010
  • 161920Z AUTO 15004KT 110V170 9999 // BKN160/// 24/17 Q1009
  • 161850Z AUTO VRB02KT 9999 // OVC150/// 25/17 Q1009

Prévision TAF périmée.



MET'MAP, la Météo Aéronautique d'un coup d'oeil ! - Copyright ORBIFLY Décembre 2007 - Disclaimer

ORBIFLY MET'MAP TEAM :

Programmation & Développement : Alexandra Zaïnal
Sur une idée originale de : Baudouin d'Aumeries
Soutien technique & logistique : Manuel Goepfert
Assistance : Marc-Olivier Méhu




SOURCES & CREDITS :

   NOAA